sensor_id;sensor_type;location;lat;lon;timestamp;temperature;humidity
40670;DHT22;26355;45.528;9.234;2023-02-28T00:00:16;10.50;99.90
40670;DHT22;26355;45.528;9.234;2023-02-28T00:02:43;8.80;99.90
40670;DHT22;26355;45.528;9.234;2023-02-28T00:05:10;11.00;99.90
40670;DHT22;26355;45.528;9.234;2023-02-28T00:10:04;8.50;99.90
40670;DHT22;26355;45.528;9.234;2023-02-28T00:12:32;8.20;99.90
40670;DHT22;26355;45.528;9.234;2023-02-28T00:14:58;9.50;99.90
40670;DHT22;26355;45.528;9.234;2023-02-28T00:17:23;8.70;99.90
40670;DHT22;26355;45.528;9.234;2023-02-28T00:19:50;8.20;99.90
40670;DHT22;26355;45.528;9.234;2023-02-28T00:22:18;8.00;99.90
40670;DHT22;26355;45.528;9.234;2023-02-28T00:24:44;7.60;99.90
40670;DHT22;26355;45.528;9.234;2023-02-28T00:29:36;7.90;99.90
40670;DHT22;26355;45.528;9.234;2023-02-28T00:32:02;7.60;99.90
40670;DHT22;26355;45.528;9.234;2023-02-28T00:34:28;7.50;99.90
40670;DHT22;26355;45.528;9.234;2023-02-28T00:39:20;7.80;99.90
40670;DHT22;26355;45.528;9.234;2023-02-28T00:41:46;9.60;99.90
40670;DHT22;26355;45.528;9.234;2023-02-28T00:44:11;9.20;99.90
40670;DHT22;26355;45.528;9.234;2023-02-28T00:46:37;7.90;99.90
40670;DHT22;26355;45.528;9.234;2023-02-28T00:51:29;8.10;99.90
40670;DHT22;26355;45.528;9.234;2023-02-28T00:56:21;7.30;99.90
40670;DHT22;26355;45.528;9.234;2023-02-28T00:58:46;8.30;99.90
40670;DHT22;26355;45.528;9.234;2023-02-28T01:01:12;9.10;99.90
40670;DHT22;26355;45.528;9.234;2023-02-28T01:03:38;7.70;99.90
40670;DHT22;26355;45.528;9.234;2023-02-28T01:06:04;10.10;99.90
40670;DHT22;26355;45.528;9.234;2023-02-28T01:08:30;7.80;99.90
40670;DHT22;26355;45.528;9.234;2023-02-28T01:10:55;7.50;99.90
40670;DHT22;26355;45.528;9.234;2023-02-28T01:13:21;7.70;99.90
40670;DHT22;26355;45.528;9.234;2023-02-28T01:15:55;7.50;99.90
40670;DHT22;26355;45.528;9.234;2023-02-28T01:18:21;8.50;99.90
40670;DHT22;26355;45.528;9.234;2023-02-28T01:20:48;8.70;99.90
40670;DHT22;26355;45.528;9.234;2023-02-28T01:23:14;10.10;99.90
40670;DHT22;26355;45.528;9.234;2023-02-28T01:25:39;7.40;99.90
40670;DHT22;26355;45.528;9.234;2023-02-28T01:28:06;10.10;99.90
40670;DHT22;26355;45.528;9.234;2023-02-28T01:30:32;8.80;99.90
40670;DHT22;26355;45.528;9.234;2023-02-28T01:32:58;7.80;99.90
40670;DHT22;26355;45.528;9.234;2023-02-28T01:35:24;9.50;99.90
40670;DHT22;26355;45.528;9.234;2023-02-28T01:37:49;7.90;99.90
40670;DHT22;26355;45.528;9.234;2023-02-28T01:40:15;8.10;99.90
40670;DHT22;26355;45.528;9.234;2023-02-28T01:42:41;8.70;99.90
40670;DHT22;26355;45.528;9.234;2023-02-28T01:45:27;8.10;99.90
40670;DHT22;26355;45.528;9.234;2023-02-28T01:48:05;8.00;99.90
40670;DHT22;26355;45.528;9.234;2023-02-28T01:50:36;10.40;99.90
40670;DHT22;26355;45.528;9.234;2023-02-28T01:53:06;7.90;99.90
40670;DHT22;26355;45.528;9.234;2023-02-28T01:55:33;9.30;99.90
40670;DHT22;26355;45.528;9.234;2023-02-28T01:58:02;10.60;99.90
40670;DHT22;26355;45.528;9.234;2023-02-28T02:00:30;9.20;99.90
40670;DHT22;26355;45.528;9.234;2023-02-28T02:03:09;8.30;99.90
40670;DHT22;26355;45.528;9.234;2023-02-28T02:05:37;8.50;99.90
40670;DHT22;26355;45.528;9.234;2023-02-28T02:08:06;10.90;99.90
40670;DHT22;26355;45.528;9.234;2023-02-28T02:13:18;8.10;99.90
40670;DHT22;26355;45.528;9.234;2023-02-28T02:16:19;8.40;99.90
40670;DHT22;26355;45.528;9.234;2023-02-28T02:22:01;7.30;99.90
40670;DHT22;26355;45.528;9.234;2023-02-28T02:33:05;8.50;99.90
40670;DHT22;26355;45.528;9.234;2023-02-28T02:43:55;7.30;99.90
40670;DHT22;26355;45.528;9.234;2023-02-28T02:46:45;7.30;99.90
40670;DHT22;26355;45.528;9.234;2023-02-28T02:49:21;7.40;99.90
40670;DHT22;26355;45.528;9.234;2023-02-28T02:51:48;7.40;99.90
40670;DHT22;26355;45.528;9.234;2023-02-28T02:54:18;7.10;99.90
40670;DHT22;26355;45.528;9.234;2023-02-28T02:56:46;7.50;99.90
40670;DHT22;26355;45.528;9.234;2023-02-28T02:59:17;7.20;99.90
40670;DHT22;26355;45.528;9.234;2023-02-28T03:01:52;7.40;99.90
40670;DHT22;26355;45.528;9.234;2023-02-28T03:04:21;5.50;99.90
40670;DHT22;26355;45.528;9.234;2023-02-28T03:06:48;6.60;99.90
40670;DHT22;26355;45.528;9.234;2023-02-28T03:09:15;7.30;99.90
40670;DHT22;26355;45.528;9.234;2023-02-28T03:11:41;7.50;99.90
40670;DHT22;26355;45.528;9.234;2023-02-28T03:19:55;7.00;99.90
40670;DHT22;26355;45.528;9.234;2023-02-28T03:25:33;7.60;99.90
40670;DHT22;26355;45.528;9.234;2023-02-28T03:31:04;6.20;99.90
40670;DHT22;26355;45.528;9.234;2023-02-28T03:33:32;7.70;99.90
40670;DHT22;26355;45.528;9.234;2023-02-28T03:36:04;8.40;99.90
40670;DHT22;26355;45.528;9.234;2023-02-28T03:38:41;5.90;99.90
40670;DHT22;26355;45.528;9.234;2023-02-28T03:41:27;6.30;99.90
40670;DHT22;26355;45.528;9.234;2023-02-28T03:43:59;6.60;99.90
40670;DHT22;26355;45.528;9.234;2023-02-28T03:46:28;6.40;99.90
40670;DHT22;26355;45.528;9.234;2023-02-28T03:49:09;7.00;99.90
40670;DHT22;26355;45.528;9.234;2023-02-28T03:51:38;7.90;99.90
40670;DHT22;26355;45.528;9.234;2023-02-28T03:54:10;8.40;99.90
40670;DHT22;26355;45.528;9.234;2023-02-28T03:56:50;6.90;99.90
40670;DHT22;26355;45.528;9.234;2023-02-28T03:59:32;7.00;99.90
40670;DHT22;26355;45.528;9.234;2023-02-28T04:02:00;7.30;99.90
40670;DHT22;26355;45.528;9.234;2023-02-28T04:04:25;7.60;99.90
40670;DHT22;26355;45.528;9.234;2023-02-28T04:06:52;7.00;99.90
40670;DHT22;26355;45.528;9.234;2023-02-28T04:09:18;8.50;99.90
40670;DHT22;26355;45.528;9.234;2023-02-28T04:11:46;6.70;99.90
40670;DHT22;26355;45.528;9.234;2023-02-28T04:14:13;9.10;99.90
40670;DHT22;26355;45.528;9.234;2023-02-28T04:16:41;6.80;99.90
40670;DHT22;26355;45.528;9.234;2023-02-28T04:21:39;6.30;99.90
40670;DHT22;26355;45.528;9.234;2023-02-28T04:24:06;7.50;99.90
40670;DHT22;26355;45.528;9.234;2023-02-28T04:26:33;8.80;99.90
40670;DHT22;26355;45.528;9.234;2023-02-28T04:29:00;7.20;99.90
40670;DHT22;26355;45.528;9.234;2023-02-28T04:31:26;8.10;99.90
40670;DHT22;26355;45.528;9.234;2023-02-28T04:33:52;7.50;99.90
40670;DHT22;26355;45.528;9.234;2023-02-28T04:38:44;7.30;99.90
40670;DHT22;26355;45.528;9.234;2023-02-28T04:41:11;7.20;99.90
40670;DHT22;26355;45.528;9.234;2023-02-28T04:43:36;9.90;99.90
40670;DHT22;26355;45.528;9.234;2023-02-28T04:46:03;7.70;99.90
40670;DHT22;26355;45.528;9.234;2023-02-28T04:48:31;7.20;99.90
40670;DHT22;26355;45.528;9.234;2023-02-28T04:51:04;9.00;99.90
40670;DHT22;26355;45.528;9.234;2023-02-28T04:53:30;8.10;99.90
40670;DHT22;26355;45.528;9.234;2023-02-28T04:56:03;7.90;99.90
40670;DHT22;26355;45.528;9.234;2023-02-28T04:58:29;7.90;99.90
40670;DHT22;26355;45.528;9.234;2023-02-28T05:01:04;8.50;99.90
40670;DHT22;26355;45.528;9.234;2023-02-28T05:03:30;8.60;99.90
40670;DHT22;26355;45.528;9.234;2023-02-28T05:05:56;7.40;99.90
40670;DHT22;26355;45.528;9.234;2023-02-28T05:08:21;7.60;99.90
40670;DHT22;26355;45.528;9.234;2023-02-28T05:10:47;10.30;99.90
40670;DHT22;26355;45.528;9.234;2023-02-28T05:13:13;9.50;99.90
40670;DHT22;26355;45.528;9.234;2023-02-28T05:15:38;7.40;99.90
40670;DHT22;26355;45.528;9.234;2023-02-28T05:18:04;8.50;99.90
40670;DHT22;26355;45.528;9.234;2023-02-28T05:20:30;8.20;99.90
40670;DHT22;26355;45.528;9.234;2023-02-28T05:22:56;7.80;99.90
40670;DHT22;26355;45.528;9.234;2023-02-28T05:25:23;7.50;99.90
40670;DHT22;26355;45.528;9.234;2023-02-28T05:27:49;8.50;99.90
40670;DHT22;26355;45.528;9.234;2023-02-28T05:30:15;7.90;99.90
40670;DHT22;26355;45.528;9.234;2023-02-28T05:32:41;8.00;99.90
40670;DHT22;26355;45.528;9.234;2023-02-28T05:35:09;7.50;99.90
40670;DHT22;26355;45.528;9.234;2023-02-28T05:37:35;9.00;99.90
40670;DHT22;26355;45.528;9.234;2023-02-28T05:42:27;8.40;99.90
40670;DHT22;26355;45.528;9.234;2023-02-28T05:44:53;9.00;99.90
40670;DHT22;26355;45.528;9.234;2023-02-28T05:47:19;8.20;99.90
40670;DHT22;26355;45.528;9.234;2023-02-28T05:49:44;8.00;99.90
40670;DHT22;26355;45.528;9.234;2023-02-28T05:52:10;10.00;99.90
40670;DHT22;26355;45.528;9.234;2023-02-28T05:54:36;9.30;99.90
40670;DHT22;26355;45.528;9.234;2023-02-28T05:57:01;9.70;99.90
40670;DHT22;26355;45.528;9.234;2023-02-28T05:59:27;10.10;99.90
40670;DHT22;26355;45.528;9.234;2023-02-28T06:01:52;9.70;99.90
40670;DHT22;26355;45.528;9.234;2023-02-28T06:04:19;9.10;99.90
40670;DHT22;26355;45.528;9.234;2023-02-28T06:06:49;8.30;99.90
40670;DHT22;26355;45.528;9.234;2023-02-28T06:09:16;8.30;99.90
40670;DHT22;26355;45.528;9.234;2023-02-28T06:11:42;9.10;99.90
40670;DHT22;26355;45.528;9.234;2023-02-28T06:14:16;8.30;99.90
40670;DHT22;26355;45.528;9.234;2023-02-28T06:16:42;8.10;99.90
40670;DHT22;26355;45.528;9.234;2023-02-28T06:19:09;8.40;99.90
40670;DHT22;26355;45.528;9.234;2023-02-28T06:21:36;9.80;99.90
40670;DHT22;26355;45.528;9.234;2023-02-28T06:24:02;12.00;99.90
40670;DHT22;26355;45.528;9.234;2023-02-28T06:26:28;8.50;99.90
40670;DHT22;26355;45.528;9.234;2023-02-28T06:28:55;9.00;99.90
40670;DHT22;26355;45.528;9.234;2023-02-28T06:31:21;8.70;99.90
40670;DHT22;26355;45.528;9.234;2023-02-28T06:33:47;8.50;99.90
40670;DHT22;26355;45.528;9.234;2023-02-28T06:36:14;9.40;99.90
40670;DHT22;26355;45.528;9.234;2023-02-28T06:38:40;8.00;99.90
40670;DHT22;26355;45.528;9.234;2023-02-28T06:41:07;9.20;99.90
40670;DHT22;26355;45.528;9.234;2023-02-28T06:43:37;8.80;99.90
40670;DHT22;26355;45.528;9.234;2023-02-28T06:46:06;9.00;99.90
40670;DHT22;26355;45.528;9.234;2023-02-28T06:48:31;10.40;99.90
40670;DHT22;26355;45.528;9.234;2023-02-28T06:51:09;8.00;99.90
40670;DHT22;26355;45.528;9.234;2023-02-28T06:53:35;8.90;99.90
40670;DHT22;26355;45.528;9.234;2023-02-28T06:56:10;8.90;99.90
40670;DHT22;26355;45.528;9.234;2023-02-28T06:58:36;10.80;99.90
40670;DHT22;26355;45.528;9.234;2023-02-28T07:01:03;9.40;99.90
40670;DHT22;26355;45.528;9.234;2023-02-28T07:06:52;8.60;99.90
40670;DHT22;26355;45.528;9.234;2023-02-28T07:09:17;9.90;99.90
40670;DHT22;26355;45.528;9.234;2023-02-28T07:11:44;9.80;99.90
40670;DHT22;26355;45.528;9.234;2023-02-28T07:14:09;9.20;99.90
40670;DHT22;26355;45.528;9.234;2023-02-28T07:16:35;8.90;99.90
40670;DHT22;26355;45.528;9.234;2023-02-28T07:19:01;9.00;99.90
40670;DHT22;26355;45.528;9.234;2023-02-28T07:21:26;9.10;99.90
40670;DHT22;26355;45.528;9.234;2023-02-28T07:23:52;9.00;99.90
40670;DHT22;26355;45.528;9.234;2023-02-28T07:26:19;9.10;99.90
40670;DHT22;26355;45.528;9.234;2023-02-28T07:28:46;9.00;99.90
40670;DHT22;26355;45.528;9.234;2023-02-28T07:31:13;9.50;99.90
40670;DHT22;26355;45.528;9.234;2023-02-28T07:33:39;10.00;99.90
40670;DHT22;26355;45.528;9.234;2023-02-28T07:36:13;9.50;99.90
40670;DHT22;26355;45.528;9.234;2023-02-28T07:38:47;10.90;99.90
40670;DHT22;26355;45.528;9.234;2023-02-28T07:41:14;9.00;99.90
40670;DHT22;26355;45.528;9.234;2023-02-28T07:43:40;9.00;99.90
40670;DHT22;26355;45.528;9.234;2023-02-28T07:46:09;9.30;99.90
40670;DHT22;26355;45.528;9.234;2023-02-28T07:48:35;13.50;99.90
40670;DHT22;26355;45.528;9.234;2023-02-28T07:51:01;9.50;99.90
40670;DHT22;26355;45.528;9.234;2023-02-28T07:53:27;9.70;99.90
40670;DHT22;26355;45.528;9.234;2023-02-28T07:55:57;9.20;99.90
40670;DHT22;26355;45.528;9.234;2023-02-28T07:58:24;9.40;99.90
40670;DHT22;26355;45.528;9.234;2023-02-28T08:00:50;9.30;99.90
40670;DHT22;26355;45.528;9.234;2023-02-28T08:03:17;9.10;99.90
40670;DHT22;26355;45.528;9.234;2023-02-28T08:05:43;9.30;99.90
40670;DHT22;26355;45.528;9.234;2023-02-28T08:08:09;7.70;99.90
40670;DHT22;26355;45.528;9.234;2023-02-28T08:10:34;11.00;99.90
40670;DHT22;26355;45.528;9.234;2023-02-28T08:13:00;9.80;99.90
40670;DHT22;26355;45.528;9.234;2023-02-28T08:15:26;9.20;99.90
40670;DHT22;26355;45.528;9.234;2023-02-28T08:17:52;10.00;99.90
40670;DHT22;26355;45.528;9.234;2023-02-28T08:20:18;9.30;99.90
40670;DHT22;26355;45.528;9.234;2023-02-28T08:22:44;9.60;99.90
40670;DHT22;26355;45.528;9.234;2023-02-28T08:25:10;9.50;99.90
40670;DHT22;26355;45.528;9.234;2023-02-28T08:27:36;8.90;99.90
40670;DHT22;26355;45.528;9.234;2023-02-28T08:30:02;9.80;99.90
40670;DHT22;26355;45.528;9.234;2023-02-28T08:32:28;9.50;99.90
40670;DHT22;26355;45.528;9.234;2023-02-28T08:34:54;9.40;99.90
40670;DHT22;26355;45.528;9.234;2023-02-28T08:37:20;9.50;99.90
40670;DHT22;26355;45.528;9.234;2023-02-28T08:39:45;9.30;99.90
40670;DHT22;26355;45.528;9.234;2023-02-28T08:42:11;9.60;99.90
40670;DHT22;26355;45.528;9.234;2023-02-28T08:44:36;9.50;99.90
40670;DHT22;26355;45.528;9.234;2023-02-28T08:47:02;9.40;99.90
40670;DHT22;26355;45.528;9.234;2023-02-28T08:49:27;9.50;99.90
40670;DHT22;26355;45.528;9.234;2023-02-28T08:51:54;9.50;99.90
40670;DHT22;26355;45.528;9.234;2023-02-28T08:54:20;9.50;99.90
40670;DHT22;26355;45.528;9.234;2023-02-28T08:56:46;9.60;99.90
40670;DHT22;26355;45.528;9.234;2023-02-28T08:59:12;9.60;99.90
40670;DHT22;26355;45.528;9.234;2023-02-28T09:01:38;9.60;99.90
40670;DHT22;26355;45.528;9.234;2023-02-28T09:04:06;9.40;99.90
40670;DHT22;26355;45.528;9.234;2023-02-28T09:06:34;9.80;99.90
40670;DHT22;26355;45.528;9.234;2023-02-28T09:09:00;9.70;99.90
40670;DHT22;26355;45.528;9.234;2023-02-28T09:11:27;9.80;99.90
40670;DHT22;26355;45.528;9.234;2023-02-28T09:13:53;9.60;99.90
40670;DHT22;26355;45.528;9.234;2023-02-28T09:16:19;9.60;99.90
40670;DHT22;26355;45.528;9.234;2023-02-28T09:18:44;10.30;99.90
40670;DHT22;26355;45.528;9.234;2023-02-28T09:21:13;10.90;99.90
40670;DHT22;26355;45.528;9.234;2023-02-28T09:23:43;9.70;99.90
40670;DHT22;26355;45.528;9.234;2023-02-28T09:26:14;9.40;99.90
40670;DHT22;26355;45.528;9.234;2023-02-28T09:28:40;9.80;99.90
40670;DHT22;26355;45.528;9.234;2023-02-28T09:31:05;9.70;99.90
40670;DHT22;26355;45.528;9.234;2023-02-28T09:33:31;10.70;99.90
40670;DHT22;26355;45.528;9.234;2023-02-28T09:36:01;9.70;99.90
40670;DHT22;26355;45.528;9.234;2023-02-28T09:38:27;10.40;99.90
40670;DHT22;26355;45.528;9.234;2023-02-28T09:41:03;9.20;99.90
40670;DHT22;26355;45.528;9.234;2023-02-28T09:43:33;9.40;99.90
40670;DHT22;26355;45.528;9.234;2023-02-28T09:46:30;9.10;99.90
40670;DHT22;26355;45.528;9.234;2023-02-28T09:48:56;8.70;99.90
40670;DHT22;26355;45.528;9.234;2023-02-28T09:53:49;8.80;99.90
40670;DHT22;26355;45.528;9.234;2023-02-28T09:56:20;7.90;99.90
40670;DHT22;26355;45.528;9.234;2023-02-28T10:01:58;8.80;99.90
40670;DHT22;26355;45.528;9.234;2023-02-28T10:04:43;9.10;99.90
40670;DHT22;26355;45.528;9.234;2023-02-28T10:10:22;9.20;99.90
40670;DHT22;26355;45.528;9.234;2023-02-28T10:12:48;8.80;99.90
40670;DHT22;26355;45.528;9.234;2023-02-28T10:15:16;7.90;99.90
40670;DHT22;26355;45.528;9.234;2023-02-28T10:17:45;9.40;99.90
40670;DHT22;26355;45.528;9.234;2023-02-28T10:20:20;10.30;99.90
40670;DHT22;26355;45.528;9.234;2023-02-28T10:25:26;10.00;99.90
40670;DHT22;26355;45.528;9.234;2023-02-28T10:27:54;10.60;99.90
40670;DHT22;26355;45.528;9.234;2023-02-28T10:30:23;10.30;99.90
40670;DHT22;26355;45.528;9.234;2023-02-28T10:32:52;10.20;99.90
40670;DHT22;26355;45.528;9.234;2023-02-28T10:35:24;11.60;99.90
40670;DHT22;26355;45.528;9.234;2023-02-28T10:37:55;11.00;99.70
40670;DHT22;26355;45.528;9.234;2023-02-28T10:43:16;11.20;99.60
40670;DHT22;26355;45.528;9.234;2023-02-28T10:45:55;12.20;99.30
40670;DHT22;26355;45.528;9.234;2023-02-28T10:58:33;11.80;98.90
40670;DHT22;26355;45.528;9.234;2023-02-28T11:07:21;12.10;98.60
40670;DHT22;26355;45.528;9.234;2023-02-28T11:09:50;13.00;98.80
40670;DHT22;26355;45.528;9.234;2023-02-28T11:14:51;12.30;98.50
40670;DHT22;26355;45.528;9.234;2023-02-28T11:17:29;12.30;98.40
40670;DHT22;26355;45.528;9.234;2023-02-28T11:20:06;11.80;98.50
40670;DHT22;26355;45.528;9.234;2023-02-28T11:22:39;13.40;99.10
40670;DHT22;26355;45.528;9.234;2023-02-28T11:25:16;12.00;98.40
40670;DHT22;26355;45.528;9.234;2023-02-28T11:27:57;12.50;98.50
40670;DHT22;26355;45.528;9.234;2023-02-28T11:30:30;12.50;98.50
40670;DHT22;26355;45.528;9.234;2023-02-28T11:32:57;12.30;98.30
40670;DHT22;26355;45.528;9.234;2023-02-28T11:35:33;13.20;98.60
40670;DHT22;26355;45.528;9.234;2023-02-28T11:38:00;12.50;97.90
40670;DHT22;26355;45.528;9.234;2023-02-28T11:51:21;13.00;98.00
40670;DHT22;26355;45.528;9.234;2023-02-28T11:56:48;13.00;97.30
40670;DHT22;26355;45.528;9.234;2023-02-28T12:05:02;13.40;97.40
40670;DHT22;26355;45.528;9.234;2023-02-28T12:07:44;13.30;97.40
40670;DHT22;26355;45.528;9.234;2023-02-28T12:10:29;13.10;97.70
40670;DHT22;26355;45.528;9.234;2023-02-28T12:20:49;13.20;97.20
40670;DHT22;26355;45.528;9.234;2023-02-28T12:28:27;13.20;97.50
40670;DHT22;26355;45.528;9.234;2023-02-28T12:31:00;13.20;97.70
40670;DHT22;26355;45.528;9.234;2023-02-28T12:33:33;13.20;97.60
40670;DHT22;26355;45.528;9.234;2023-02-28T12:36:05;13.10;97.20
40670;DHT22;26355;45.528;9.234;2023-02-28T12:39:01;13.10;97.60
40670;DHT22;26355;45.528;9.234;2023-02-28T12:41:59;13.00;97.50
40670;DHT22;26355;45.528;9.234;2023-02-28T12:44:52;13.00;97.20
40670;DHT22;26355;45.528;9.234;2023-02-28T12:47:19;13.20;96.90
40670;DHT22;26355;45.528;9.234;2023-02-28T12:49:53;13.10;97.60
40670;DHT22;26355;45.528;9.234;2023-02-28T12:55:19;13.70;97.30
40670;DHT22;26355;45.528;9.234;2023-02-28T13:00:21;12.70;97.50
40670;DHT22;26355;45.528;9.234;2023-02-28T13:03:27;12.70;97.50
40670;DHT22;26355;45.528;9.234;2023-02-28T13:06:05;12.70;97.30
40670;DHT22;26355;45.528;9.234;2023-02-28T13:11:02;12.70;97.60
40670;DHT22;26355;45.528;9.234;2023-02-28T13:13:30;13.10;97.70
40670;DHT22;26355;45.528;9.234;2023-02-28T13:18:31;12.90;97.40
40670;DHT22;26355;45.528;9.234;2023-02-28T13:20:57;12.90;97.50
40670;DHT22;26355;45.528;9.234;2023-02-28T13:26:17;12.70;96.80
40670;DHT22;26355;45.528;9.234;2023-02-28T13:31:19;12.70;97.00
40670;DHT22;26355;45.528;9.234;2023-02-28T13:34:04;12.60;97.20
40670;DHT22;26355;45.528;9.234;2023-02-28T13:36:31;12.40;97.00
40670;DHT22;26355;45.528;9.234;2023-02-28T13:38:59;13.30;97.30
40670;DHT22;26355;45.528;9.234;2023-02-28T13:44:06;12.50;96.80
40670;DHT22;26355;45.528;9.234;2023-02-28T13:54:34;12.70;96.70
40670;DHT22;26355;45.528;9.234;2023-02-28T13:59:55;12.80;95.90
40670;DHT22;26355;45.528;9.234;2023-02-28T14:07:46;12.80;96.60
40670;DHT22;26355;45.528;9.234;2023-02-28T14:10:29;13.10;96.70
40670;DHT22;26355;45.528;9.234;2023-02-28T14:13:36;12.80;96.70
40670;DHT22;26355;45.528;9.234;2023-02-28T14:16:03;12.90;96.70
40670;DHT22;26355;45.528;9.234;2023-02-28T14:18:36;12.90;96.80
40670;DHT22;26355;45.528;9.234;2023-02-28T14:21:27;13.00;96.90
40670;DHT22;26355;45.528;9.234;2023-02-28T14:32:13;13.10;96.40
40670;DHT22;26355;45.528;9.234;2023-02-28T14:34:51;13.10;96.00
40670;DHT22;26355;45.528;9.234;2023-02-28T14:37:28;13.20;95.80
40670;DHT22;26355;45.528;9.234;2023-02-28T14:39:54;13.30;95.80
40670;DHT22;26355;45.528;9.234;2023-02-28T14:42:33;13.20;96.10
40670;DHT22;26355;45.528;9.234;2023-02-28T14:44:59;13.30;96.00
40670;DHT22;26355;45.528;9.234;2023-02-28T14:47:31;13.40;96.20
40670;DHT22;26355;45.528;9.234;2023-02-28T14:49:58;13.50;95.90
40670;DHT22;26355;45.528;9.234;2023-02-28T14:52:28;14.50;96.30
40670;DHT22;26355;45.528;9.234;2023-02-28T14:57:29;13.80;95.40
40670;DHT22;26355;45.528;9.234;2023-02-28T15:02:47;13.10;95.20
40670;DHT22;26355;45.528;9.234;2023-02-28T15:07:38;12.90;95.40
40670;DHT22;26355;45.528;9.234;2023-02-28T15:10:17;12.90;95.50
40670;DHT22;26355;45.528;9.234;2023-02-28T15:13:00;12.90;95.30
40670;DHT22;26355;45.528;9.234;2023-02-28T15:15:59;12.80;95.30
40670;DHT22;26355;45.528;9.234;2023-02-28T15:18:28;12.60;95.40
40670;DHT22;26355;45.528;9.234;2023-02-28T15:20:58;12.70;96.10
40670;DHT22;26355;45.528;9.234;2023-02-28T15:23:27;12.70;96.00
40670;DHT22;26355;45.528;9.234;2023-02-28T15:25:53;12.60;96.10
40670;DHT22;26355;45.528;9.234;2023-02-28T15:28:21;12.70;96.00
40670;DHT22;26355;45.528;9.234;2023-02-28T15:31:00;12.60;96.00
40670;DHT22;26355;45.528;9.234;2023-02-28T15:33:28;12.60;95.70
40670;DHT22;26355;45.528;9.234;2023-02-28T15:36:15;12.60;96.10
40670;DHT22;26355;45.528;9.234;2023-02-28T15:38:43;12.50;95.50
40670;DHT22;26355;45.528;9.234;2023-02-28T15:41:27;12.30;96.10
40670;DHT22;26355;45.528;9.234;2023-02-28T15:44:28;12.50;96.00
40670;DHT22;26355;45.528;9.234;2023-02-28T15:47:02;12.40;96.00
40670;DHT22;26355;45.528;9.234;2023-02-28T15:49:45;12.10;96.10
40670;DHT22;26355;45.528;9.234;2023-02-28T15:52:15;12.10;96.00
40670;DHT22;26355;45.528;9.234;2023-02-28T15:54:41;12.30;96.40
40670;DHT22;26355;45.528;9.234;2023-02-28T15:57:21;12.00;96.50
40670;DHT22;26355;45.528;9.234;2023-02-28T15:59:56;12.00;96.50
40670;DHT22;26355;45.528;9.234;2023-02-28T16:02:43;12.00;96.50
40670;DHT22;26355;45.528;9.234;2023-02-28T16:07:38;12.10;96.70
40670;DHT22;26355;45.528;9.234;2023-02-28T16:10:05;12.00;96.60
40670;DHT22;26355;45.528;9.234;2023-02-28T16:12:34;12.00;96.70
40670;DHT22;26355;45.528;9.234;2023-02-28T16:17:43;11.90;96.90
40670;DHT22;26355;45.528;9.234;2023-02-28T16:20:29;12.10;97.10
40670;DHT22;26355;45.528;9.234;2023-02-28T16:22:55;11.80;96.60
40670;DHT22;26355;45.528;9.234;2023-02-28T16:25:26;11.90;97.00
40670;DHT22;26355;45.528;9.234;2023-02-28T16:27:54;11.70;97.00
40670;DHT22;26355;45.528;9.234;2023-02-28T16:30:23;11.80;97.10
40670;DHT22;26355;45.528;9.234;2023-02-28T16:32:51;11.80;97.00
40670;DHT22;26355;45.528;9.234;2023-02-28T16:35:18;11.80;97.20
40670;DHT22;26355;45.528;9.234;2023-02-28T16:37:44;11.80;97.40
40670;DHT22;26355;45.528;9.234;2023-02-28T16:40:18;11.70;97.00
40670;DHT22;26355;45.528;9.234;2023-02-28T16:42:46;11.80;97.00
40670;DHT22;26355;45.528;9.234;2023-02-28T16:45:31;11.90;97.10
40670;DHT22;26355;45.528;9.234;2023-02-28T16:47:57;11.80;97.10
40670;DHT22;26355;45.528;9.234;2023-02-28T16:50:25;12.70;97.50
40670;DHT22;26355;45.528;9.234;2023-02-28T16:52:51;11.80;97.20
40670;DHT22;26355;45.528;9.234;2023-02-28T16:55:18;11.80;97.30
40670;DHT22;26355;45.528;9.234;2023-02-28T16:57:49;12.30;97.50
40670;DHT22;26355;45.528;9.234;2023-02-28T17:00:16;12.80;97.70
40670;DHT22;26355;45.528;9.234;2023-02-28T17:02:42;11.70;97.60
40670;DHT22;26355;45.528;9.234;2023-02-28T17:05:10;13.80;98.00
40670;DHT22;26355;45.528;9.234;2023-02-28T17:07:36;11.80;97.60
40670;DHT22;26355;45.528;9.234;2023-02-28T17:10:02;11.80;97.60
40670;DHT22;26355;45.528;9.234;2023-02-28T17:12:33;11.80;97.50
40670;DHT22;26355;45.528;9.234;2023-02-28T17:15:01;11.80;97.50
40670;DHT22;26355;45.528;9.234;2023-02-28T17:17:26;11.80;97.50
40670;DHT22;26355;45.528;9.234;2023-02-28T17:19:58;12.70;97.40
40670;DHT22;26355;45.528;9.234;2023-02-28T17:22:24;12.00;97.30
40670;DHT22;26355;45.528;9.234;2023-02-28T17:24:51;13.90;97.90
40670;DHT22;26355;45.528;9.234;2023-02-28T17:27:21;12.10;97.40
40670;DHT22;26355;45.528;9.234;2023-02-28T17:29:46;12.10;97.30
40670;DHT22;26355;45.528;9.234;2023-02-28T17:32:12;12.10;97.20
40670;DHT22;26355;45.528;9.234;2023-02-28T17:34:38;12.10;97.20
40670;DHT22;26355;45.528;9.234;2023-02-28T17:37:03;12.20;97.20
40670;DHT22;26355;45.528;9.234;2023-02-28T17:39:29;12.20;97.10
40670;DHT22;26355;45.528;9.234;2023-02-28T17:41:56;12.30;97.20
40670;DHT22;26355;45.528;9.234;2023-02-28T17:44:23;12.30;97.20
40670;DHT22;26355;45.528;9.234;2023-02-28T17:46:49;12.30;97.20
40670;DHT22;26355;45.528;9.234;2023-02-28T17:49:16;12.20;97.20
40670;DHT22;26355;45.528;9.234;2023-02-28T17:51:42;12.90;97.40
40670;DHT22;26355;45.528;9.234;2023-02-28T17:54:08;12.10;97.30
40670;DHT22;26355;45.528;9.234;2023-02-28T17:56:34;12.10;97.30
40670;DHT22;26355;45.528;9.234;2023-02-28T17:58:59;13.00;97.60
40670;DHT22;26355;45.528;9.234;2023-02-28T18:01:25;12.20;97.50
40670;DHT22;26355;45.528;9.234;2023-02-28T18:03:52;11.90;97.40
40670;DHT22;26355;45.528;9.234;2023-02-28T18:08:46;11.80;97.50
40670;DHT22;26355;45.528;9.234;2023-02-28T18:11:12;11.90;97.70
40670;DHT22;26355;45.528;9.234;2023-02-28T18:13:44;11.90;97.80
40670;DHT22;26355;45.528;9.234;2023-02-28T18:16:11;11.70;97.80
40670;DHT22;26355;45.528;9.234;2023-02-28T18:18:36;11.60;98.00
40670;DHT22;26355;45.528;9.234;2023-02-28T18:21:10;11.60;98.10
40670;DHT22;26355;45.528;9.234;2023-02-28T18:23:36;13.00;98.60
40670;DHT22;26355;45.528;9.234;2023-02-28T18:26:06;12.50;98.70
40670;DHT22;26355;45.528;9.234;2023-02-28T18:28:32;11.20;98.60
40670;DHT22;26355;45.528;9.234;2023-02-28T18:31:05;11.60;98.90
40670;DHT22;26355;45.528;9.234;2023-02-28T18:33:31;11.50;99.00
40670;DHT22;26355;45.528;9.234;2023-02-28T18:35:56;11.20;99.00
40670;DHT22;26355;45.528;9.234;2023-02-28T18:38:22;11.30;99.20
40670;DHT22;26355;45.528;9.234;2023-02-28T18:41:06;11.20;99.20
40670;DHT22;26355;45.528;9.234;2023-02-28T18:43:34;11.60;99.70
40670;DHT22;26355;45.528;9.234;2023-02-28T18:46:19;12.50;99.80
40670;DHT22;26355;45.528;9.234;2023-02-28T18:48:45;11.20;99.80
40670;DHT22;26355;45.528;9.234;2023-02-28T18:51:17;11.00;99.60
40670;DHT22;26355;45.528;9.234;2023-02-28T18:53:43;11.00;99.80
40670;DHT22;26355;45.528;9.234;2023-02-28T18:56:15;11.10;99.90